createdAt,value
2019-02-05T00:00:58.983Z,10.10
2019-02-05T00:03:28.336Z,8.07
2019-02-05T00:05:57.533Z,8.10
2019-02-05T00:08:26.841Z,8.10
2019-02-05T00:10:56.444Z,8.13
2019-02-05T00:13:25.663Z,6.87
2019-02-05T00:15:54.892Z,8.40
2019-02-05T00:18:24.104Z,8.30
2019-02-05T00:20:53.305Z,9.27
2019-02-05T00:23:22.532Z,9.17
2019-02-05T00:25:52.044Z,9.73
2019-02-05T00:28:21.240Z,8.33
2019-02-05T00:30:50.480Z,7.47
2019-02-05T00:33:19.692Z,9.33
2019-02-05T00:35:48.861Z,9.67
2019-02-05T00:38:18.275Z,7.90
2019-02-05T00:40:47.900Z,9.67
2019-02-05T00:43:17.108Z,9.47
2019-02-05T00:45:46.340Z,10.00
2019-02-05T00:48:15.565Z,9.03
2019-02-05T00:50:44.748Z,9.87
2019-02-05T00:53:13.980Z,9.10
2019-02-05T00:55:43.585Z,8.37
2019-02-05T00:58:12.849Z,9.97
2019-02-05T01:00:42.092Z,9.43
2019-02-05T01:03:11.533Z,8.40
2019-02-05T01:05:40.732Z,9.70
2019-02-05T01:08:10.012Z,10.10
2019-02-05T01:10:39.520Z,10.67
2019-02-05T01:13:08.735Z,9.77
2019-02-05T01:15:37.924Z,10.53
2019-02-05T01:18:07.147Z,7.47
2019-02-05T01:20:36.350Z,10.37
2019-02-05T01:23:05.841Z,9.90
2019-02-05T01:25:35.367Z,10.70
2019-02-05T01:28:04.989Z,8.43
2019-02-05T01:30:34.209Z,9.57
2019-02-05T01:33:03.399Z,10.73
2019-02-05T01:35:32.575Z,9.43
2019-02-05T01:38:01.786Z,9.27
2019-02-05T01:40:30.992Z,10.80
2019-02-05T01:43:00.219Z,10.27
2019-02-05T01:45:29.552Z,7.97
2019-02-05T01:47:58.768Z,8.40
2019-02-05T01:50:28.500Z,11.33
2019-02-05T01:52:57.724Z,10.37
2019-02-05T01:55:26.924Z,9.90
2019-02-05T01:57:56.192Z,9.97
2019-02-05T02:00:30.975Z,10.03
2019-02-05T02:03:00.175Z,8.47
2019-02-05T02:05:29.523Z,9.50
2019-02-05T02:07:59.108Z,8.37
2019-02-05T02:10:29.832Z,9.30
2019-02-05T02:12:59.100Z,9.67
2019-02-05T02:15:28.484Z,9.43
2019-02-05T02:17:57.721Z,8.37
2019-02-05T02:20:26.977Z,9.17
2019-02-05T02:22:56.600Z,10.83
2019-02-05T02:25:25.824Z,11.50
2019-02-05T02:27:55.006Z,9.80
2019-02-05T02:30:33.124Z,10.30
2019-02-05T02:33:02.332Z,11.60
2019-02-05T02:35:31.540Z,11.33
2019-02-05T02:38:01.220Z,10.60
2019-02-05T02:40:30.473Z,11.67
2019-02-05T02:42:59.656Z,9.90
2019-02-05T02:45:28.865Z,11.17
2019-02-05T02:47:58.104Z,9.63
2019-02-05T02:50:27.345Z,10.90
2019-02-05T02:52:56.573Z,10.57
2019-02-05T02:55:25.794Z,10.70
2019-02-05T02:57:54.969Z,11.43
2019-02-05T03:00:24.201Z,11.67
2019-02-05T03:02:53.417Z,11.63
2019-02-05T03:05:23.781Z,9.20
2019-02-05T03:07:53.355Z,12.80
2019-02-05T03:10:32.012Z,8.03
2019-02-05T03:13:01.180Z,12.67
2019-02-05T03:15:30.390Z,11.77
2019-02-05T03:17:59.596Z,12.57
2019-02-05T03:20:28.833Z,12.00
2019-02-05T03:22:58.073Z,12.70
2019-02-05T03:25:27.308Z,12.40
2019-02-05T03:27:56.561Z,10.93
2019-02-05T03:30:26.034Z,13.87
2019-02-05T03:32:55.627Z,14.43
2019-02-05T03:35:25.261Z,10.00
2019-02-05T03:37:54.469Z,13.70
2019-02-05T03:41:08.617Z,14.73
2019-02-05T03:43:41.604Z,14.43
2019-02-05T03:46:15.354Z,11.43
2019-02-05T03:48:45.745Z,14.07
2019-02-05T03:51:45.383Z,13.53
2019-02-05T03:54:30.128Z,14.20
2019-02-05T04:00:45.826Z,13.83
2019-02-05T04:03:44.749Z,14.90
2019-02-05T04:06:41.829Z,15.73
2019-02-05T04:09:33.837Z,12.80
2019-02-05T04:12:28.316Z,17.37
2019-02-05T04:15:26.415Z,11.43
2019-02-05T04:18:32.426Z,13.30
2019-02-05T04:21:41.526Z,16.53
2019-02-05T04:24:46.659Z,18.37
2019-02-05T04:27:28.846Z,16.63
2019-02-05T04:30:36.925Z,17.47
2019-02-05T04:33:38.691Z,12.87
2019-02-05T04:36:30.957Z,16.77
2019-02-05T04:39:42.437Z,16.53
2019-02-05T04:42:43.146Z,16.63
2019-02-05T04:45:49.241Z,16.47
2019-02-05T04:48:44.937Z,16.30
2019-02-05T04:51:33.440Z,15.60
2019-02-05T04:54:41.980Z,13.80
2019-02-05T04:57:26.326Z,15.97
2019-02-05T05:00:35.994Z,15.17
2019-02-05T05:03:46.872Z,13.20
2019-02-05T05:06:48.250Z,14.90
2019-02-05T05:09:54.440Z,16.10
2019-02-05T05:12:24.240Z,17.03
2019-02-05T05:14:53.447Z,16.17
2019-02-05T05:17:22.692Z,16.30
2019-02-05T05:19:52.402Z,15.07
2019-02-05T05:22:21.723Z,17.97
2019-02-05T05:24:51.228Z,16.17
2019-02-05T05:27:21.817Z,13.20
2019-02-05T05:29:52.220Z,17.40
2019-02-05T05:32:21.640Z,17.70
2019-02-05T05:34:50.865Z,19.37
2019-02-05T05:37:18.547Z,15.87
2019-02-05T05:39:47.761Z,16.60
2019-02-05T05:42:16.972Z,18.50
2019-02-05T05:44:46.427Z,19.17
2019-02-05T05:47:15.626Z,17.50
2019-02-05T05:49:44.898Z,18.43
2019-02-05T05:52:14.149Z,15.77
2019-02-05T05:54:43.354Z,13.50
2019-02-05T05:57:12.674Z,18.60
2019-02-05T05:59:41.873Z,16.30
2019-02-05T06:02:11.098Z,14.90
2019-02-05T06:04:40.310Z,15.77
2019-02-05T06:07:09.538Z,17.53
2019-02-05T06:09:38.800Z,11.87
2019-02-05T06:12:08.102Z,16.20
2019-02-05T06:14:37.430Z,15.03
2019-02-05T06:17:07.035Z,15.43
2019-02-05T06:19:36.252Z,15.00
2019-02-05T06:22:05.476Z,10.57
2019-02-05T06:24:34.724Z,13.53
2019-02-05T06:27:03.961Z,15.87
2019-02-05T06:29:33.214Z,15.97
2019-02-05T06:32:02.573Z,14.47
2019-02-05T06:34:31.872Z,16.00
2019-02-05T06:37:01.100Z,12.03
2019-02-05T06:39:31.611Z,10.87
2019-02-05T06:42:00.866Z,14.03
2019-02-05T06:44:30.081Z,15.27
2019-02-05T06:46:59.363Z,13.30
2019-02-05T06:49:28.807Z,11.00
2019-02-05T06:51:58.017Z,14.33
2019-02-05T06:54:27.268Z,9.07
2019-02-05T06:56:56.501Z,13.87
2019-02-05T06:59:25.824Z,13.63
2019-02-05T07:01:55.085Z,12.63
2019-02-05T07:04:24.596Z,13.57
2019-02-05T07:06:53.813Z,13.27
2019-02-05T07:09:23.092Z,14.40
2019-02-05T07:11:52.285Z,9.43
2019-02-05T07:14:21.541Z,12.13
2019-02-05T07:16:50.763Z,15.53
2019-02-05T07:19:19.993Z,12.57
2019-02-05T07:21:49.342Z,12.73
2019-02-05T07:24:18.777Z,13.43
2019-02-05T07:26:48.268Z,9.43
2019-02-05T07:29:17.611Z,13.27
2019-02-05T07:31:46.834Z,13.93
2019-02-05T07:34:16.121Z,10.27
2019-02-05T07:36:45.721Z,14.20
2019-02-05T07:39:14.952Z,13.23
2019-02-05T07:41:44.177Z,14.83
2019-02-05T07:44:13.519Z,13.73
2019-02-05T07:46:42.712Z,14.80
2019-02-05T07:49:11.960Z,13.73
2019-02-05T07:51:41.293Z,10.03
2019-02-05T07:54:10.536Z,15.43
2019-02-05T07:56:39.828Z,15.87
2019-02-05T07:59:10.526Z,11.13
2019-02-05T08:01:39.894Z,12.43
2019-02-05T08:04:09.147Z,14.57
2019-02-05T08:06:38.443Z,15.10
2019-02-05T08:09:10.454Z,15.27
2019-02-05T08:11:41.387Z,14.37
2019-02-05T08:14:11.022Z,16.13
2019-02-05T08:16:40.265Z,15.70
2019-02-05T08:19:09.588Z,13.77
2019-02-05T08:21:39.003Z,13.97
2019-02-05T08:24:08.425Z,15.13
2019-02-05T08:26:37.724Z,11.90
2019-02-05T08:29:07.106Z,16.80
2019-02-05T08:31:36.349Z,14.63
2019-02-05T08:34:05.665Z,14.80
2019-02-05T08:36:35.824Z,15.10
2019-02-05T08:39:08.143Z,16.30
2019-02-05T08:41:37.357Z,15.97
2019-02-05T08:44:06.775Z,16.83
2019-02-05T08:46:36.223Z,16.27
2019-02-05T08:49:05.433Z,15.63
2019-02-05T08:51:34.772Z,17.63
2019-02-05T08:54:04.613Z,15.87
2019-02-05T08:56:33.833Z,13.17
2019-02-05T08:59:03.041Z,17.23
2019-02-05T09:01:32.289Z,12.33
2019-02-05T09:04:01.504Z,13.83
2019-02-05T09:06:30.811Z,14.90
2019-02-05T09:09:00.033Z,15.93
2019-02-05T09:11:29.293Z,14.13
2019-02-05T09:14:10.356Z,14.10
2019-02-05T09:16:29.441Z,14.33
2019-02-05T09:18:58.842Z,12.40
2019-02-05T09:21:28.076Z,15.40
2019-02-05T09:23:57.306Z,13.67
2019-02-05T09:26:26.541Z,13.17
2019-02-05T09:28:55.761Z,15.40
2019-02-05T09:31:24.987Z,14.43
2019-02-05T09:33:54.289Z,14.13
2019-02-05T09:36:23.733Z,11.37
2019-02-05T09:38:52.920Z,7.87
2019-02-05T09:41:22.165Z,12.80
2019-02-05T09:43:51.476Z,12.53
2019-02-05T09:46:20.709Z,14.60
2019-02-05T09:48:49.905Z,9.33
2019-02-05T09:51:19.154Z,15.00
2019-02-05T09:53:48.368Z,13.70
2019-02-05T09:56:17.608Z,12.87
2019-02-05T09:58:46.808Z,12.63
2019-02-05T10:01:16.037Z,14.17
2019-02-05T10:03:45.289Z,13.23
2019-02-05T10:06:14.529Z,13.40
2019-02-05T10:08:44.041Z,12.20
2019-02-05T10:11:13.269Z,10.50
2019-02-05T10:13:42.470Z,9.30
2019-02-05T10:16:11.670Z,13.20
2019-02-05T10:18:40.924Z,13.87
2019-02-05T10:21:10.152Z,13.47
2019-02-05T10:23:39.400Z,13.30
2019-02-05T10:26:09.064Z,12.30
2019-02-05T10:28:38.285Z,11.83
2019-02-05T10:31:07.585Z,12.37
2019-02-05T10:33:36.813Z,12.67
2019-02-05T10:36:06.247Z,14.00
2019-02-05T10:38:35.560Z,12.67
2019-02-05T10:41:05.796Z,14.43
2019-02-05T10:43:35.012Z,13.23
2019-02-05T10:46:05.000Z,12.33
2019-02-05T10:48:34.243Z,12.87
2019-02-05T10:51:03.508Z,13.27
2019-02-05T10:53:32.768Z,13.57
2019-02-05T10:56:02.016Z,14.67
2019-02-05T10:58:31.532Z,14.10
2019-02-05T11:01:00.769Z,16.17
2019-02-05T11:03:30.048Z,13.47
2019-02-05T11:05:59.270Z,14.23
2019-02-05T11:08:28.552Z,15.10
2019-02-05T11:10:57.793Z,12.43
2019-02-05T11:13:27.089Z,14.03
2019-02-05T11:15:56.334Z,10.27
2019-02-05T11:18:25.531Z,14.27
2019-02-05T11:20:54.845Z,14.97
2019-02-05T11:23:24.056Z,15.00
2019-02-05T11:25:53.379Z,13.77
2019-02-05T11:28:22.684Z,13.30
2019-02-05T11:30:53.597Z,13.10
2019-02-05T11:33:23.124Z,12.87
2019-02-05T11:35:52.513Z,12.37
2019-02-05T11:38:21.729Z,13.90
2019-02-05T11:40:50.952Z,13.63
2019-02-05T11:43:20.293Z,12.67
2019-02-05T11:45:49.628Z,12.43
2019-02-05T11:48:19.534Z,13.13
2019-02-05T11:50:48.797Z,14.07
2019-02-05T11:53:18.026Z,14.53
2019-02-05T11:55:47.248Z,12.40
2019-02-05T11:58:16.927Z,12.77
2019-02-05T12:00:53.980Z,14.67
2019-02-05T12:03:23.228Z,11.97
2019-02-05T12:05:52.445Z,12.00
2019-02-05T12:08:21.652Z,14.00
2019-02-05T12:10:51.065Z,15.07
2019-02-05T12:13:20.289Z,16.93
2019-02-05T12:15:49.572Z,16.07
2019-02-05T12:18:18.858Z,17.10
2019-02-05T12:20:48.169Z,13.77
2019-02-05T12:23:17.399Z,17.67
2019-02-05T12:25:46.684Z,15.23
2019-02-05T12:28:15.929Z,17.27
2019-02-05T12:30:45.720Z,13.67
2019-02-05T12:33:15.080Z,13.17
2019-02-05T12:35:44.702Z,14.40
2019-02-05T12:38:14.097Z,13.47
2019-02-05T12:40:43.412Z,13.63
2019-02-05T12:43:12.769Z,10.53
2019-02-05T12:45:42.059Z,14.33
2019-02-05T12:48:11.462Z,11.63
2019-02-05T12:50:40.889Z,11.47
2019-02-05T12:53:10.112Z,12.40
2019-02-05T12:55:39.552Z,12.83
2019-02-05T12:58:09.053Z,11.93
2019-02-05T13:00:40.491Z,13.07
2019-02-05T13:03:10.898Z,12.90
2019-02-05T13:05:40.491Z,13.03
2019-02-05T13:08:09.879Z,12.77
2019-02-05T13:10:42.320Z,12.33
2019-02-05T13:13:11.888Z,11.93
2019-02-05T13:15:41.116Z,12.83
2019-02-05T13:18:10.460Z,12.57
2019-02-05T13:20:40.547Z,11.80
2019-02-05T13:23:10.292Z,12.37
2019-02-05T13:25:39.997Z,13.33
2019-02-05T13:28:12.173Z,12.33
2019-02-05T13:30:41.605Z,12.30
2019-02-05T13:33:12.019Z,11.97
2019-02-05T13:35:41.353Z,13.43
2019-02-05T13:38:10.664Z,11.87
2019-02-05T13:40:39.914Z,12.60
2019-02-05T13:43:09.308Z,12.53
2019-02-05T13:45:40.268Z,11.70
2019-02-05T13:48:10.012Z,12.90
2019-02-05T13:50:39.314Z,11.00
2019-02-05T13:53:08.602Z,11.77
2019-02-05T13:55:40.561Z,12.67
2019-02-05T13:58:10.328Z,12.20
2019-02-05T14:00:45.138Z,11.83
2019-02-05T14:03:15.110Z,11.03
2019-02-05T14:05:45.019Z,10.60
2019-02-05T14:08:14.400Z,12.00
2019-02-05T14:10:43.995Z,10.93
2019-02-05T14:13:13.540Z,9.27
2019-02-05T14:15:44.084Z,12.83
2019-02-05T14:18:13.516Z,12.43
2019-02-05T14:20:43.146Z,11.97
2019-02-05T14:23:12.941Z,12.73
2019-02-05T14:25:42.584Z,13.27
2019-02-05T14:28:12.098Z,12.17
2019-02-05T14:30:50.066Z,10.97
2019-02-05T14:33:19.474Z,11.53
2019-02-05T14:35:49.032Z,12.30
2019-02-05T14:38:18.348Z,12.53
2019-02-05T14:40:47.665Z,11.63
2019-02-05T14:43:16.893Z,12.77
2019-02-05T14:45:47.023Z,11.87
2019-02-05T14:48:16.381Z,12.13
2019-02-05T14:50:46.791Z,11.70
2019-02-05T14:53:16.159Z,10.77
2019-02-05T14:55:45.392Z,12.10
2019-02-05T14:58:15.842Z,12.03
2019-02-05T15:00:45.076Z,11.83
2019-02-05T15:03:15.193Z,11.70
2019-02-05T15:05:45.935Z,11.40
2019-02-05T15:08:16.589Z,11.63
2019-02-05T15:10:45.816Z,11.33
2019-02-05T15:13:16.196Z,11.17
2019-02-05T15:15:45.619Z,12.27
2019-02-05T15:18:23.004Z,11.43
2019-02-05T15:20:52.589Z,12.07
2019-02-05T15:23:22.320Z,11.03
2019-02-05T15:25:52.253Z,13.07
2019-02-05T15:28:21.660Z,11.57
2019-02-05T15:30:50.982Z,11.80
2019-02-05T15:33:38.469Z,11.80
2019-02-05T15:36:25.565Z,12.10
2019-02-05T15:38:54.966Z,11.30
2019-02-05T15:41:24.412Z,12.70
2019-02-05T15:43:53.789Z,12.37
2019-02-05T15:46:23.205Z,11.90
2019-02-05T15:48:53.250Z,12.20
2019-02-05T15:51:22.672Z,13.77
2019-02-05T15:53:52.024Z,12.43
2019-02-05T15:56:21.293Z,13.37
2019-02-05T15:58:50.506Z,13.63
2019-02-05T16:01:19.953Z,13.30
2019-02-05T16:03:49.162Z,12.87
2019-02-05T16:06:18.392Z,13.83
2019-02-05T16:08:47.712Z,11.93
2019-02-05T16:11:17.055Z,14.37
2019-02-05T16:13:46.814Z,14.13
2019-02-05T16:16:16.560Z,12.47
2019-02-05T16:18:46.903Z,15.07
2019-02-05T16:21:16.282Z,13.23
2019-02-05T16:23:46.251Z,13.87
2019-02-05T16:26:16.008Z,14.33
2019-02-05T16:28:45.400Z,12.70
2019-02-05T16:31:14.835Z,14.47
2019-02-05T16:33:44.546Z,14.03
2019-02-05T16:36:14.023Z,14.37
2019-02-05T16:38:43.516Z,13.17
2019-02-05T16:41:12.995Z,15.30
2019-02-05T16:43:42.891Z,14.77
2019-02-05T16:46:12.534Z,15.70
2019-02-05T16:48:42.193Z,13.60
2019-02-05T16:51:11.851Z,15.73
2019-02-05T16:53:41.756Z,14.83
2019-02-05T16:56:11.327Z,15.00
2019-02-05T16:58:40.800Z,13.53
2019-02-05T17:01:10.276Z,14.60
2019-02-05T17:03:39.767Z,14.73
2019-02-05T17:06:09.377Z,14.53
2019-02-05T17:08:38.964Z,14.73
2019-02-05T17:11:08.214Z,13.80
2019-02-05T17:13:37.431Z,12.30
2019-02-05T17:16:06.748Z,14.10
2019-02-05T17:18:35.969Z,15.20
2019-02-05T17:21:05.864Z,14.47
2019-02-05T17:23:35.096Z,15.27
2019-02-05T17:26:04.636Z,16.23
2019-02-05T17:28:33.852Z,15.57
2019-02-05T17:31:03.080Z,15.63
2019-02-05T17:33:32.301Z,15.40
2019-02-05T17:36:01.531Z,15.23
2019-02-05T17:38:31.130Z,15.93
2019-02-05T17:41:00.392Z,16.30
2019-02-05T17:43:29.604Z,17.13
2019-02-05T17:45:58.836Z,17.50
2019-02-05T17:48:28.156Z,16.07
2019-02-05T17:50:57.423Z,16.73
2019-02-05T17:53:26.792Z,15.83
2019-02-05T17:55:56.050Z,16.67
2019-02-05T17:58:25.285Z,18.23
2019-02-05T18:00:59.031Z,16.50
2019-02-05T18:03:28.294Z,17.97
2019-02-05T18:05:57.595Z,16.93
2019-02-05T18:08:26.819Z,18.43
2019-02-05T18:10:56.045Z,16.83
2019-02-05T18:13:25.346Z,18.27
2019-02-05T18:15:54.578Z,18.70
2019-02-05T18:18:24.285Z,19.33
2019-02-05T18:20:53.476Z,18.37
2019-02-05T18:23:22.740Z,18.43
2019-02-05T18:25:52.368Z,19.70
2019-02-05T18:28:21.613Z,19.23
2019-02-05T18:30:50.804Z,20.80
2019-02-05T18:33:20.133Z,18.30
2019-02-05T18:35:49.433Z,18.30
2019-02-05T18:38:18.630Z,20.03
2019-02-05T18:40:48.080Z,21.00
2019-02-05T18:43:17.305Z,19.90
2019-02-05T18:45:46.537Z,18.90
2019-02-05T18:48:15.784Z,19.83
2019-02-05T18:50:45.011Z,20.77
2019-02-05T18:53:14.267Z,15.93
2019-02-05T18:55:43.733Z,22.20
2019-02-05T18:58:12.937Z,23.87
2019-02-05T19:00:43.133Z,20.30
2019-02-05T19:03:16.314Z,22.60
2019-02-05T19:05:43.716Z,23.00
2019-02-05T19:08:15.867Z,22.50
2019-02-05T19:10:44.004Z,22.03
2019-02-05T19:13:13.305Z,22.17
2019-02-05T19:15:42.533Z,21.63
2019-02-05T19:18:12.161Z,23.47
2019-02-05T19:20:41.365Z,22.37
2019-02-05T19:23:11.126Z,21.67
2019-02-05T19:25:58.560Z,20.73
2019-02-05T19:28:30.142Z,22.70
2019-02-05T19:31:02.931Z,20.27
2019-02-05T19:33:32.154Z,21.43
2019-02-05T19:36:01.409Z,21.83
2019-02-05T19:38:30.624Z,21.50
2019-02-05T19:40:59.889Z,21.07
2019-02-05T19:43:29.128Z,22.20
2019-02-05T19:46:17.166Z,22.70
2019-02-05T19:48:51.557Z,21.70
2019-02-05T19:51:20.887Z,25.23
2019-02-05T19:53:50.145Z,21.60
2019-02-05T19:56:19.458Z,23.03
2019-02-05T19:58:48.817Z,22.80
2019-02-05T20:01:18.712Z,24.13
2019-02-05T20:03:47.989Z,22.90
2019-02-05T20:06:17.377Z,23.93
2019-02-05T20:08:46.732Z,23.40
2019-02-05T20:11:16.405Z,22.97
2019-02-05T20:13:45.738Z,24.40
2019-02-05T20:16:14.970Z,22.13
2019-02-05T20:18:44.195Z,22.73
2019-02-05T20:21:13.422Z,21.87
2019-02-05T20:23:42.760Z,21.53
2019-02-05T20:26:12.020Z,22.73
2019-02-05T20:28:41.569Z,21.63
2019-02-05T20:31:10.902Z,22.30
2019-02-05T20:33:49.752Z,22.60
2019-02-05T20:36:11.172Z,22.27
2019-02-05T20:38:40.486Z,23.40
2019-02-05T20:41:09.920Z,20.73
2019-02-05T20:43:39.511Z,23.73
2019-02-05T20:46:08.853Z,21.30
2019-02-05T20:48:38.150Z,23.30
2019-02-05T20:51:07.482Z,21.67
2019-02-05T20:53:36.831Z,22.90
2019-02-05T20:56:06.181Z,23.20
2019-02-05T20:58:35.418Z,23.30
2019-02-05T21:01:05.336Z,22.73
2019-02-05T21:03:34.665Z,22.37
2019-02-05T21:06:03.988Z,22.80
2019-02-05T21:08:33.245Z,22.23
2019-02-05T21:11:02.487Z,23.90
2019-02-05T21:13:32.013Z,23.03
2019-02-05T21:16:01.723Z,22.03
2019-02-05T21:18:30.945Z,24.23
2019-02-05T21:21:00.384Z,23.80
2019-02-05T21:23:29.877Z,23.87
2019-02-05T21:25:59.108Z,22.70
2019-02-05T21:28:28.418Z,24.93
2019-02-05T21:30:57.628Z,23.50
2019-02-05T21:33:27.080Z,22.47
2019-02-05T21:35:56.304Z,23.57
2019-02-05T21:38:25.548Z,23.10
2019-02-05T21:40:54.769Z,24.17
2019-02-05T21:43:23.988Z,25.07
2019-02-05T21:45:53.232Z,24.77
2019-02-05T21:48:22.824Z,24.50
2019-02-05T21:50:52.065Z,25.13
2019-02-05T21:53:21.274Z,22.17
2019-02-05T21:55:50.510Z,24.67
2019-02-05T21:58:19.806Z,24.73
2019-02-05T22:00:49.020Z,24.70
2019-02-05T22:03:18.313Z,25.70
2019-02-05T22:05:47.769Z,25.37
2019-02-05T22:08:17.064Z,22.47
2019-02-05T22:10:46.448Z,23.57
2019-02-05T22:13:15.613Z,23.07
2019-02-05T22:15:44.846Z,23.80
2019-02-05T22:18:14.113Z,24.63
2019-02-05T22:20:43.485Z,25.40
2019-02-05T22:23:13.097Z,24.97
2019-02-05T22:25:42.465Z,26.50
2019-02-05T22:28:11.800Z,24.57
2019-02-05T22:30:41.065Z,25.90
2019-02-05T22:33:10.260Z,25.83
2019-02-05T22:35:39.493Z,24.13
2019-02-05T22:38:08.750Z,24.53
2019-02-05T22:40:37.968Z,23.67
2019-02-05T22:43:07.589Z,27.07
2019-02-05T22:45:36.801Z,26.63
2019-02-05T22:48:07.206Z,25.97
2019-02-05T22:50:36.553Z,23.80
2019-02-05T22:53:06.208Z,25.83
2019-02-05T22:55:35.509Z,28.47
2019-02-05T22:58:05.177Z,26.63
2019-02-05T23:01:04.653Z,25.20
2019-02-05T23:04:01.546Z,25.10
2019-02-05T23:06:57.725Z,26.87
2019-02-05T23:09:34.552Z,26.97
2019-02-05T23:12:23.101Z,25.93
2019-02-05T23:14:56.451Z,25.97
2019-02-05T23:17:25.773Z,26.23
2019-02-05T23:19:55.381Z,27.93
2019-02-05T23:22:24.593Z,27.07
2019-02-05T23:24:53.824Z,27.17
2019-02-05T23:27:23.453Z,27.47
2019-02-05T23:29:52.673Z,27.37
2019-02-05T23:32:21.864Z,28.13
2019-02-05T23:35:01.813Z,27.77
2019-02-05T23:37:21.913Z,27.10
2019-02-05T23:39:51.124Z,29.40
2019-02-05T23:42:20.768Z,27.10
2019-02-05T23:44:50.055Z,27.27
2019-02-05T23:47:19.323Z,26.70
2019-02-05T23:49:48.522Z,22.83
2019-02-05T23:52:17.773Z,23.87
2019-02-05T23:54:47.084Z,24.13
2019-02-05T23:57:16.329Z,23.87
2019-02-05T23:59:45.538Z,25.80
